createdAt,value
2019-05-19T00:02:17.438Z,5.40
2019-05-19T00:04:48.143Z,3.75
2019-05-19T00:07:20.290Z,3.15
2019-05-19T00:09:50.559Z,4.35
2019-05-19T00:12:20.883Z,10.18
2019-05-19T00:14:51.159Z,3.75
2019-05-19T00:17:21.441Z,10.68
2019-05-19T00:19:51.794Z,6.20
2019-05-19T00:22:22.693Z,2.47
2019-05-19T00:24:54.618Z,3.85
2019-05-19T00:27:25.246Z,5.67
2019-05-19T00:30:00.136Z,4.95
2019-05-19T00:32:31.242Z,5.30
2019-05-19T00:35:01.807Z,5.67
2019-05-19T00:37:33.002Z,5.60
2019-05-19T00:40:03.407Z,5.28
2019-05-19T00:42:35.766Z,7.67
2019-05-19T00:45:06.950Z,6.15
2019-05-19T00:47:37.248Z,4.47
2019-05-19T00:50:08.511Z,4.80
2019-05-19T00:52:38.842Z,5.78
2019-05-19T00:55:09.653Z,11.18
2019-05-19T00:57:40.270Z,8.63
2019-05-19T01:00:12.028Z,6.78
2019-05-19T01:02:42.344Z,5.53
2019-05-19T01:05:12.904Z,7.58
2019-05-19T01:07:43.187Z,8.68
2019-05-19T01:10:14.934Z,6.95
2019-05-19T01:12:46.306Z,5.12
2019-05-19T01:15:18.635Z,7.55
2019-05-19T01:17:51.156Z,7.62
2019-05-19T01:20:22.031Z,6.05
2019-05-19T01:22:52.363Z,5.70
2019-05-19T01:25:23.223Z,6.15
2019-05-19T01:27:56.197Z,5.08
2019-05-19T01:30:27.389Z,7.87
2019-05-19T01:32:58.418Z,6.10
2019-05-19T01:35:30.334Z,7.20
2019-05-19T01:38:00.640Z,9.03
2019-05-19T01:40:30.954Z,8.68
2019-05-19T01:43:03.657Z,3.77
2019-05-19T01:45:34.033Z,7.33
2019-05-19T01:48:04.335Z,8.00
2019-05-19T01:50:35.759Z,6.67
2019-05-19T01:53:06.116Z,6.60
2019-05-19T01:55:38.493Z,9.90
2019-05-19T01:58:08.816Z,5.50
2019-05-19T02:00:39.240Z,8.48
2019-05-19T02:03:09.587Z,8.53
2019-05-19T02:05:40.588Z,6.58
2019-05-19T02:08:11.059Z,8.40
2019-05-19T02:10:41.352Z,5.15
2019-05-19T02:13:11.980Z,8.08
2019-05-19T02:15:42.343Z,8.93
2019-05-19T02:18:13.425Z,10.18
2019-05-19T02:20:44.169Z,7.62
2019-05-19T02:23:16.315Z,13.35
2019-05-19T02:25:47.038Z,8.88
2019-05-19T02:28:19.114Z,12.40
2019-05-19T02:30:49.510Z,11.97
2019-05-19T02:33:20.116Z,12.00
2019-05-19T02:35:50.454Z,7.05
2019-05-19T02:38:21.613Z,9.28
2019-05-19T02:40:54.824Z,10.18
2019-05-19T02:43:26.945Z,8.80
2019-05-19T02:46:01.194Z,7.80
2019-05-19T02:48:32.394Z,19.23
2019-05-19T02:51:04.597Z,9.38
2019-05-19T02:53:34.993Z,8.15
2019-05-19T02:56:06.446Z,10.13
2019-05-19T02:58:36.869Z,12.10
2019-05-19T03:01:07.538Z,12.85
2019-05-19T03:03:37.840Z,7.75
2019-05-19T03:06:08.191Z,12.35
2019-05-19T03:08:39.673Z,12.00
2019-05-19T03:11:09.895Z,8.85
2019-05-19T03:13:42.524Z,7.45
2019-05-19T03:16:12.858Z,11.85
2019-05-19T03:18:44.076Z,14.18
2019-05-19T03:21:14.367Z,12.65
2019-05-19T03:23:44.664Z,11.48
2019-05-19T03:26:14.972Z,9.15
2019-05-19T03:28:46.024Z,9.40
2019-05-19T03:31:39.167Z,9.63
2019-05-19T03:34:09.470Z,6.75
2019-05-19T03:36:41.826Z,6.85
2019-05-19T03:39:13.936Z,12.05
2019-05-19T03:41:44.190Z,10.48
2019-05-19T03:44:14.740Z,11.97
2019-05-19T03:46:45.396Z,7.40
2019-05-19T03:49:18.200Z,6.70
2019-05-19T03:51:50.598Z,7.22
2019-05-19T03:54:20.903Z,13.20
2019-05-19T03:56:52.286Z,10.08
2019-05-19T03:59:24.714Z,14.75
2019-05-19T04:01:55.356Z,11.55
2019-05-19T04:04:25.641Z,7.17
2019-05-19T04:06:56.076Z,9.33
2019-05-19T04:09:26.650Z,10.45
2019-05-19T04:11:56.976Z,9.83
2019-05-19T04:14:27.284Z,9.88
2019-05-19T04:16:58.694Z,12.95
2019-05-19T04:19:28.988Z,7.90
2019-05-19T04:22:01.296Z,9.50
2019-05-19T04:24:33.283Z,8.20
2019-05-19T04:27:03.644Z,9.03
2019-05-19T04:29:33.981Z,10.00
2019-05-19T04:32:04.684Z,10.93
2019-05-19T04:34:35.420Z,10.90
2019-05-19T04:37:07.806Z,12.78
2019-05-19T04:39:39.882Z,7.92
2019-05-19T04:42:10.212Z,10.03
2019-05-19T04:44:40.614Z,8.08
2019-05-19T04:47:12.195Z,10.23
2019-05-19T04:49:42.894Z,12.20
2019-05-19T04:52:13.303Z,11.05
2019-05-19T04:54:43.653Z,9.35
2019-05-19T04:57:13.942Z,8.53
2019-05-19T04:59:44.257Z,11.57
2019-05-19T05:02:17.586Z,12.70
2019-05-19T05:04:47.944Z,11.20
2019-05-19T05:07:18.875Z,11.05
2019-05-19T05:09:49.266Z,10.98
2019-05-19T05:12:19.996Z,12.20
2019-05-19T05:14:50.399Z,10.45
2019-05-19T05:17:20.720Z,13.00
2019-05-19T05:19:51.078Z,11.38
2019-05-19T05:22:22.519Z,11.05
2019-05-19T05:24:55.725Z,7.03
2019-05-19T05:27:26.026Z,10.60
2019-05-19T05:29:56.311Z,13.45
2019-05-19T05:32:26.739Z,7.37
2019-05-19T05:34:57.073Z,10.13
2019-05-19T05:37:27.471Z,8.23
2019-05-19T05:39:57.792Z,15.18
2019-05-19T05:42:31.591Z,9.75
2019-05-19T05:45:00.930Z,9.78
2019-05-19T05:47:31.598Z,12.28
2019-05-19T05:50:02.755Z,7.87
2019-05-19T05:52:38.531Z,7.87
2019-05-19T05:55:06.359Z,9.95
2019-05-19T05:57:36.664Z,12.95
2019-05-19T06:00:08.570Z,11.57
2019-05-19T06:02:39.182Z,13.98
2019-05-19T06:05:10.316Z,11.97
2019-05-19T06:07:41.440Z,12.85
2019-05-19T06:10:16.155Z,7.95
2019-05-19T06:12:46.497Z,9.65
2019-05-19T06:15:16.802Z,8.33
2019-05-19T06:17:49.099Z,11.95
2019-05-19T06:20:19.493Z,15.03
2019-05-19T06:22:56.615Z,10.48
2019-05-19T06:25:22.084Z,12.65
2019-05-19T06:27:52.510Z,7.33
2019-05-19T06:30:22.802Z,9.80
2019-05-19T06:32:55.351Z,12.00
2019-05-19T06:35:25.670Z,7.97
2019-05-19T06:37:56.015Z,8.53
2019-05-19T06:40:26.335Z,12.43
2019-05-19T06:42:57.794Z,7.72
2019-05-19T06:45:28.102Z,9.35
2019-05-19T06:47:58.446Z,12.78
2019-05-19T06:50:28.753Z,9.30
2019-05-19T06:53:13.617Z,7.65
2019-05-19T06:55:31.625Z,7.08
2019-05-19T06:58:05.287Z,8.95
2019-05-19T07:00:37.231Z,8.20
2019-05-19T07:03:07.673Z,9.08
2019-05-19T07:05:37.976Z,12.37
2019-05-19T07:08:08.321Z,9.10
2019-05-19T07:10:38.653Z,8.53
2019-05-19T07:13:09.573Z,8.60
2019-05-19T07:15:39.914Z,7.75
2019-05-19T07:18:10.230Z,10.10
2019-05-19T07:20:40.695Z,8.63
2019-05-19T07:23:11.010Z,10.58
2019-05-19T07:25:42.459Z,15.48
2019-05-19T07:28:14.619Z,10.10
2019-05-19T07:30:46.783Z,8.25
2019-05-19T07:33:17.128Z,7.50
2019-05-19T07:35:47.965Z,12.25
2019-05-19T07:38:18.266Z,11.43
2019-05-19T07:40:48.857Z,10.75
2019-05-19T07:43:20.083Z,10.48
2019-05-19T07:45:52.774Z,11.30
2019-05-19T07:48:23.051Z,14.85
2019-05-19T07:50:54.032Z,8.95
2019-05-19T07:53:24.402Z,10.95
2019-05-19T07:55:54.701Z,10.93
2019-05-19T07:58:25.026Z,10.25
2019-05-19T08:00:56.628Z,16.15
2019-05-19T08:03:26.920Z,10.28
2019-05-19T08:05:57.363Z,11.80
2019-05-19T08:08:27.716Z,8.70
2019-05-19T08:10:58.321Z,9.73
2019-05-19T08:13:29.075Z,9.93
2019-05-19T08:15:59.424Z,10.00
2019-05-19T08:18:32.442Z,10.03
2019-05-19T08:21:02.788Z,9.50
2019-05-19T08:23:33.228Z,10.98
2019-05-19T08:26:03.837Z,13.75
2019-05-19T08:28:37.424Z,14.55
2019-05-19T08:31:10.204Z,10.23
2019-05-19T08:33:41.393Z,10.23
2019-05-19T08:36:11.713Z,9.10
2019-05-19T08:38:42.830Z,12.28
2019-05-19T08:41:13.131Z,13.62
2019-05-19T08:43:45.462Z,12.93
2019-05-19T08:46:16.339Z,13.53
2019-05-19T08:48:47.182Z,15.00
2019-05-19T08:51:19.595Z,9.85
2019-05-19T08:53:50.909Z,12.37
2019-05-19T08:56:24.319Z,11.38
2019-05-19T08:58:54.644Z,15.35
2019-05-19T09:01:24.985Z,11.28
2019-05-19T09:03:56.924Z,8.13
2019-05-19T09:06:27.816Z,13.18
2019-05-19T09:08:58.115Z,12.82
2019-05-19T09:11:28.585Z,11.80
2019-05-19T09:13:59.006Z,11.28
2019-05-19T09:16:31.668Z,13.55
2019-05-19T09:19:02.074Z,13.90
2019-05-19T09:21:32.875Z,15.68
2019-05-19T09:24:03.220Z,22.05
2019-05-19T09:26:35.526Z,14.45
2019-05-19T09:29:06.246Z,18.40
2019-05-19T09:31:36.583Z,24.80
2019-05-19T09:34:09.543Z,19.17
2019-05-19T09:36:40.482Z,14.50
2019-05-19T09:39:14.060Z,17.52
2019-05-19T09:41:44.380Z,17.65
2019-05-19T09:44:14.770Z,19.92
2019-05-19T09:46:45.331Z,17.77
2019-05-19T09:49:34.826Z,17.67
2019-05-19T09:52:07.263Z,18.10
2019-05-19T09:54:45.166Z,23.00
2019-05-19T09:57:10.434Z,18.67
2019-05-19T09:59:40.733Z,23.92
2019-05-19T10:02:14.287Z,18.67
2019-05-19T10:04:45.642Z,19.42
2019-05-19T10:07:16.314Z,29.98
2019-05-19T10:10:07.583Z,27.10
2019-05-19T10:12:37.963Z,17.37
2019-05-19T10:15:08.763Z,18.98
2019-05-19T10:17:39.098Z,24.47
2019-05-19T10:20:13.680Z,24.32
2019-05-19T10:22:46.426Z,20.45
2019-05-19T10:25:22.100Z,24.57
2019-05-19T10:27:52.918Z,25.45
2019-05-19T10:30:23.335Z,21.33
2019-05-19T10:32:53.618Z,29.10
2019-05-19T10:35:25.325Z,33.75
2019-05-19T10:37:55.606Z,33.30
2019-05-19T10:40:26.358Z,35.28
2019-05-19T10:42:56.675Z,26.50
2019-05-19T10:45:29.497Z,32.23
2019-05-19T10:47:59.813Z,27.10
2019-05-19T10:50:30.642Z,27.27
2019-05-19T10:53:00.971Z,24.47
2019-05-19T10:55:36.646Z,24.67
2019-05-19T10:58:04.052Z,24.25
2019-05-19T11:00:37.413Z,22.37
2019-05-19T11:03:09.726Z,27.93
2019-05-19T11:05:41.841Z,24.02
2019-05-19T11:08:13.216Z,24.07
2019-05-19T11:10:43.869Z,23.05
2019-05-19T11:13:14.324Z,22.50
2019-05-19T11:15:44.664Z,20.92
2019-05-19T11:18:18.143Z,22.35
2019-05-19T11:20:48.513Z,20.65
2019-05-19T11:23:19.242Z,22.17
2019-05-19T11:25:51.783Z,20.97
2019-05-19T11:28:22.930Z,21.70
2019-05-19T11:30:53.306Z,24.57
2019-05-19T11:33:24.303Z,27.17
2019-05-19T11:35:54.678Z,24.75
2019-05-19T11:38:25.057Z,31.50
2019-05-19T11:40:55.780Z,28.15
2019-05-19T11:43:26.138Z,24.87
2019-05-19T11:45:59.882Z,27.20
2019-05-19T11:48:30.184Z,27.35
2019-05-19T11:51:00.684Z,24.77
2019-05-19T11:53:31.015Z,23.22
2019-05-19T11:56:07.112Z,24.65
2019-05-19T11:58:35.084Z,23.98
2019-05-19T12:01:05.400Z,19.90
2019-05-19T12:03:35.844Z,22.65
2019-05-19T12:06:06.180Z,23.30
2019-05-19T12:08:36.519Z,18.55
2019-05-19T12:11:09.780Z,17.92
2019-05-19T12:13:40.528Z,16.82
2019-05-19T12:16:10.840Z,16.55
2019-05-19T12:18:42.655Z,17.80
2019-05-19T12:21:13.011Z,22.32
2019-05-19T12:23:45.684Z,17.95
2019-05-19T12:26:23.080Z,16.80
2019-05-19T12:28:48.482Z,16.80
2019-05-19T12:31:19.505Z,21.00
2019-05-19T12:33:52.327Z,18.40
2019-05-19T12:36:31.639Z,18.55
2019-05-19T12:39:01.983Z,15.85
2019-05-19T12:41:32.609Z,20.75
2019-05-19T12:44:03.089Z,18.95
2019-05-19T12:46:35.039Z,19.85
2019-05-19T12:49:05.341Z,17.55
2019-05-19T12:51:35.872Z,16.67
2019-05-19T12:54:06.271Z,22.42
2019-05-19T12:56:40.030Z,21.68
2019-05-19T12:59:15.814Z,21.68
2019-05-19T13:01:46.061Z,19.42
2019-05-19T13:04:16.426Z,21.42
2019-05-19T13:06:47.791Z,17.67
2019-05-19T13:09:18.103Z,18.82
2019-05-19T13:11:48.498Z,18.37
2019-05-19T13:14:18.934Z,18.30
2019-05-19T13:16:49.249Z,18.85
2019-05-19T13:19:20.080Z,20.82
2019-05-19T13:21:50.349Z,19.10
2019-05-19T13:24:20.674Z,18.80
2019-05-19T13:26:56.519Z,19.48
2019-05-19T13:29:23.875Z,19.27
2019-05-19T13:31:54.802Z,17.12
2019-05-19T13:34:27.786Z,20.40
2019-05-19T13:36:57.935Z,21.62
2019-05-19T13:39:28.287Z,16.25
2019-05-19T13:41:58.901Z,16.52
2019-05-19T13:44:29.242Z,16.90
2019-05-19T13:46:59.600Z,17.62
2019-05-19T13:49:30.174Z,15.70
2019-05-19T13:52:00.646Z,16.12
2019-05-19T13:54:33.383Z,14.90
2019-05-19T13:57:12.098Z,20.15
2019-05-19T13:59:39.488Z,16.40
2019-05-19T14:02:09.822Z,15.28
2019-05-19T14:04:40.719Z,13.93
2019-05-19T14:07:11.098Z,17.23
2019-05-19T14:09:41.451Z,14.40
2019-05-19T14:12:12.370Z,19.12
2019-05-19T14:14:44.729Z,17.70
2019-05-19T14:17:15.142Z,19.98
2019-05-19T14:19:45.443Z,16.97
2019-05-19T14:22:17.656Z,16.50
2019-05-19T14:24:48.320Z,18.35
2019-05-19T14:27:29.307Z,18.35
2019-05-19T14:29:54.214Z,19.57
2019-05-19T14:32:25.594Z,23.47
2019-05-19T14:34:58.869Z,22.07
2019-05-19T14:37:29.203Z,19.75
2019-05-19T14:40:00.263Z,20.02
2019-05-19T14:42:48.167Z,19.30
2019-05-19T14:45:19.894Z,22.85
2019-05-19T14:47:50.948Z,24.20
2019-05-19T14:50:24.424Z,23.83
2019-05-19T14:52:55.155Z,21.95
2019-05-19T14:55:25.600Z,20.68
2019-05-19T14:57:57.473Z,21.02
2019-05-19T15:00:27.823Z,23.57
2019-05-19T15:02:58.177Z,24.80
2019-05-19T15:05:28.733Z,22.90
2019-05-19T15:07:59.108Z,25.32
2019-05-19T15:10:29.768Z,23.52
2019-05-19T15:13:00.134Z,25.88
2019-05-19T15:15:32.863Z,24.63
2019-05-19T15:18:03.248Z,24.85
2019-05-19T15:20:35.015Z,24.43
2019-05-19T15:23:06.461Z,26.40
2019-05-19T15:25:36.798Z,24.07
2019-05-19T15:28:08.406Z,21.68
2019-05-19T15:30:39.242Z,27.20
2019-05-19T15:33:11.870Z,27.20
2019-05-19T15:35:43.427Z,25.45
2019-05-19T15:38:13.891Z,19.67
2019-05-19T15:40:44.278Z,17.98
2019-05-19T15:43:14.599Z,20.68
2019-05-19T15:45:44.948Z,21.17
2019-05-19T15:48:15.326Z,19.20
2019-05-19T15:50:46.587Z,19.98
2019-05-19T15:53:16.838Z,21.50
2019-05-19T15:55:47.245Z,18.45
2019-05-19T15:58:17.578Z,17.48
2019-05-19T16:00:48.685Z,19.55
2019-05-19T16:03:19.028Z,23.70
2019-05-19T16:05:50.921Z,19.37
2019-05-19T16:08:22.121Z,20.62
2019-05-19T16:10:52.699Z,18.40
2019-05-19T16:13:25.695Z,20.90
2019-05-19T16:15:57.073Z,18.40
2019-05-19T16:18:29.495Z,17.80
2019-05-19T16:21:02.489Z,18.60
2019-05-19T16:23:35.139Z,20.90
2019-05-19T16:26:06.303Z,19.55
2019-05-19T16:28:37.347Z,19.17
2019-05-19T16:31:07.658Z,22.60
2019-05-19T16:33:38.724Z,20.62
2019-05-19T16:36:09.053Z,20.20
2019-05-19T16:38:39.375Z,23.70
2019-05-19T16:41:14.556Z,20.02
2019-05-19T16:43:45.443Z,22.67
2019-05-19T16:46:19.585Z,20.05
2019-05-19T16:48:53.879Z,21.62
2019-05-19T16:51:24.203Z,20.60
2019-05-19T16:53:56.723Z,19.65
2019-05-19T16:56:27.238Z,23.80
2019-05-19T16:58:57.535Z,20.15
2019-05-19T17:01:30.115Z,23.47
2019-05-19T17:04:01.921Z,31.42
2019-05-19T17:06:32.795Z,25.80
2019-05-19T17:09:03.795Z,25.35
2019-05-19T17:11:34.409Z,24.65
2019-05-19T17:14:04.717Z,27.60
2019-05-19T17:16:38.603Z,25.92
2019-05-19T17:19:12.057Z,25.95
2019-05-19T17:21:42.412Z,23.55
2019-05-19T17:24:18.299Z,22.75
2019-05-19T17:26:48.605Z,21.25
2019-05-19T17:29:20.326Z,24.30
2019-05-19T17:31:50.730Z,21.17
2019-05-19T17:34:22.230Z,22.42
2019-05-19T17:36:52.956Z,20.80
2019-05-19T17:39:23.307Z,25.77
2019-05-19T17:41:53.669Z,26.25
2019-05-19T17:44:24.570Z,23.35
2019-05-19T17:46:57.099Z,23.83
2019-05-19T17:49:33.996Z,25.02
2019-05-19T17:52:04.450Z,30.68
2019-05-19T17:54:34.981Z,25.88
2019-05-19T17:57:06.160Z,27.70
2019-05-19T17:59:40.641Z,28.32
2019-05-19T18:02:11.044Z,29.05
2019-05-19T18:04:41.600Z,25.30
2019-05-19T18:07:15.424Z,28.98
2019-05-19T18:09:45.904Z,28.90
2019-05-19T18:12:16.256Z,26.57
2019-05-19T18:14:46.809Z,29.12
2019-05-19T18:17:22.574Z,32.15
2019-05-19T18:20:23.380Z,30.37
2019-05-19T18:22:47.846Z,30.70
2019-05-19T18:25:18.325Z,24.60
2019-05-19T18:27:49.911Z,29.70
2019-05-19T18:30:20.704Z,25.45
2019-05-19T18:32:51.225Z,30.60
2019-05-19T18:35:22.539Z,30.62
2019-05-19T18:37:52.842Z,32.40
2019-05-19T18:40:23.200Z,35.63
2019-05-19T18:42:54.642Z,29.35
2019-05-19T18:45:25.963Z,29.85
2019-05-19T18:47:58.783Z,34.60
2019-05-19T18:50:29.158Z,35.10
2019-05-19T18:52:59.707Z,31.17
2019-05-19T18:55:30.347Z,30.55
2019-05-19T18:58:04.554Z,32.88
2019-05-19T19:00:36.540Z,31.95
2019-05-19T19:03:07.901Z,32.58
2019-05-19T19:05:38.322Z,33.25
2019-05-19T19:08:08.710Z,29.42
2019-05-19T19:10:39.189Z,28.83
2019-05-19T19:13:09.527Z,32.83
2019-05-19T19:15:43.152Z,31.33
2019-05-19T19:18:14.975Z,39.85
2019-05-19T19:20:53.256Z,33.88
2019-05-19T19:23:25.025Z,32.95
2019-05-19T19:25:55.496Z,31.23
2019-05-19T19:28:27.655Z,29.85
2019-05-19T19:30:58.369Z,31.15
2019-05-19T19:33:29.719Z,36.00
2019-05-19T19:36:00.054Z,35.83
2019-05-19T19:38:32.327Z,37.35
2019-05-19T19:41:04.212Z,37.40
2019-05-19T19:43:34.534Z,41.90
2019-05-19T19:46:05.133Z,39.00
2019-05-19T19:48:35.722Z,45.00
2019-05-19T19:51:06.067Z,40.73
2019-05-19T19:53:39.384Z,43.52
2019-05-19T19:56:10.357Z,38.73
2019-05-19T19:58:44.234Z,39.10
2019-05-19T20:01:14.613Z,38.45
2019-05-19T20:03:45.249Z,39.78
2019-05-19T20:06:16.118Z,35.92
2019-05-19T20:08:46.707Z,34.65
2019-05-19T20:11:18.600Z,35.38
2019-05-19T20:14:10.616Z,42.03
2019-05-19T20:16:52.268Z,49.33
2019-05-19T20:19:23.484Z,41.40
2019-05-19T20:21:55.633Z,51.98
2019-05-19T20:24:26.084Z,60.28
2019-05-19T20:26:56.549Z,53.13
2019-05-19T20:29:27.200Z,57.27
2019-05-19T20:31:57.632Z,54.60
2019-05-19T20:34:31.092Z,48.75
2019-05-19T20:37:03.270Z,58.33
2019-05-19T20:39:33.625Z,50.70
2019-05-19T20:42:04.308Z,48.80
2019-05-19T20:44:34.645Z,54.48
2019-05-19T20:47:05.807Z,50.58
2019-05-19T20:49:36.606Z,43.30
2019-05-19T20:52:06.994Z,41.37
2019-05-19T20:54:37.999Z,45.35
2019-05-19T20:57:08.692Z,43.92
2019-05-19T20:59:39.028Z,40.10
2019-05-19T21:02:12.551Z,53.38
2019-05-19T21:04:45.440Z,44.55
2019-05-19T21:07:15.784Z,41.88
2019-05-19T21:09:46.340Z,40.70
2019-05-19T21:12:17.034Z,41.37
2019-05-19T21:14:47.949Z,40.70
2019-05-19T21:17:20.755Z,44.13
2019-05-19T21:19:51.247Z,45.60
2019-05-19T21:22:25.387Z,40.23
2019-05-19T21:24:56.127Z,35.90
2019-05-19T21:27:28.166Z,39.33
2019-05-19T21:29:58.455Z,36.63
2019-05-19T21:32:29.830Z,43.60
2019-05-19T21:35:01.146Z,37.67
2019-05-19T21:37:35.311Z,42.70
2019-05-19T21:40:07.139Z,37.95
2019-05-19T21:42:37.433Z,41.35
2019-05-19T21:45:08.125Z,38.30
2019-05-19T21:47:40.790Z,34.15
2019-05-19T21:50:13.242Z,38.33
2019-05-19T21:52:44.455Z,39.60
2019-05-19T21:55:15.662Z,34.53
2019-05-19T21:57:46.116Z,41.90
2019-05-19T22:00:18.348Z,32.53
2019-05-19T22:02:51.261Z,36.17
2019-05-19T22:05:22.216Z,35.00
2019-05-19T22:08:15.809Z,40.33
2019-05-19T22:10:46.160Z,34.83
2019-05-19T22:13:16.894Z,39.50
2019-05-19T22:15:48.030Z,39.65
2019-05-19T22:18:19.365Z,36.68
2019-05-19T22:20:49.793Z,36.75
2019-05-19T22:23:20.102Z,34.48
2019-05-19T22:25:50.403Z,44.33
2019-05-19T22:28:23.237Z,40.15
2019-05-19T22:30:54.361Z,38.05
2019-05-19T22:33:26.317Z,38.65
2019-05-19T22:35:56.788Z,33.15
2019-05-19T22:38:27.113Z,35.65
2019-05-19T22:40:57.715Z,35.43
2019-05-19T22:43:28.062Z,38.73
2019-05-19T22:45:58.354Z,34.85
2019-05-19T22:48:28.758Z,34.73
2019-05-19T22:50:59.105Z,32.03
2019-05-19T22:53:32.634Z,34.45
2019-05-19T22:56:04.600Z,35.98
2019-05-19T22:58:34.937Z,43.85
2019-05-19T23:01:05.561Z,41.58
2019-05-19T23:03:37.490Z,36.00
2019-05-19T23:06:10.748Z,39.58
2019-05-19T23:08:42.278Z,55.30
2019-05-19T23:11:12.627Z,49.25
2019-05-19T23:13:44.563Z,42.60
2019-05-19T23:16:18.638Z,42.43
2019-05-19T23:18:51.291Z,37.35
2019-05-19T23:21:21.612Z,46.37
2019-05-19T23:23:52.811Z,41.20
2019-05-19T23:26:24.301Z,40.73
2019-05-19T23:28:55.851Z,40.55
2019-05-19T23:31:26.185Z,32.20
2019-05-19T23:33:56.891Z,36.68
2019-05-19T23:36:27.231Z,42.38
2019-05-19T23:38:57.957Z,36.95
2019-05-19T23:41:30.763Z,36.17
2019-05-19T23:44:01.088Z,34.60
2019-05-19T23:46:31.508Z,40.95
2019-05-19T23:49:02.032Z,32.80
2019-05-19T23:51:34.044Z,40.88
2019-05-19T23:54:04.680Z,35.70
2019-05-19T23:56:35.009Z,36.95
2019-05-19T23:59:05.486Z,37.25
